Time;durP1;ratioP1;P1;durP2;ratioP2;P2;SDS_P1;SDS_P2;PMS_P1;PMS_P2;Temp;Humidity;BMP_temperature;BMP_pressure;BME280_temperature;BME280_humidity;BME280_pressure;Samples;Min_cycle;Max_cycle;Signal;HPM_P1;HPM_P2
2022/11/07 00:02:14;;;;;;;11.25;2.30;;;;;;;;;;5005274;28;20408;-67
2022/11/07 00:04:40;;;;;;;4.38;2.33;;;;;;;;;;5005309;28;20325;-65
2022/11/07 00:07:07;;;;;;;7.93;2.85;;;;;;;;;;5010371;28;20519;-67
2022/11/07 00:09:33;;;;;;;6.82;2.50;;;;;;;;;;5004966;28;20046;-65
2022/11/07 00:11:59;;;;;;;4.95;2.60;;;;;;;;;;5002803;28;20531;-64
2022/11/07 00:14:25;;;;;;;10.23;2.47;;;;;;;;;;5008589;28;20046;-65
2022/11/07 00:16:51;;;;;;;12.57;2.53;;;;;;;;;;5006352;28;20415;-66
2022/11/07 00:19:19;;;;;;;6.38;2.40;;;;;;;;;;5005778;28;20411;-64
2022/11/07 00:21:46;;;;;;;5.57;2.60;;;;;;;;;;4999960;28;20059;-63
2022/11/07 00:24:16;;;;;;;5.90;2.72;;;;;;;;;;5010152;28;20108;-60
2022/11/07 00:26:43;;;;;;;7.57;2.20;;;;;;;;;;5005706;28;20050;-62
2022/11/07 00:29:14;;;;;;;8.00;2.47;;;;;;;;;;5003982;28;20049;-63
2022/11/07 00:31:40;;;;;;;8.95;2.55;;;;;;;;;;5006581;28;20041;-63
2022/11/07 00:34:06;;;;;;;7.03;2.70;;;;;;;;;;5004810;28;20065;-61
2022/11/07 00:36:32;;;;;;;9.05;2.50;;;;;;;;;;5006152;28;20042;-64
2022/11/07 00:38:58;;;;;;;5.30;2.28;;;;;;;;;;5004072;28;20534;-64
2022/11/07 00:41:24;;;;;;;4.35;2.40;;;;;;;;;;5011533;28;20042;-62
2022/11/07 00:43:51;;;;;;;7.13;2.40;;;;;;;;;;5014041;28;20455;-63
2022/11/07 00:46:18;;;;;;;5.65;2.20;;;;;;;;;;5002362;28;20128;-64
2022/11/07 00:48:45;;;;;;;6.68;2.20;;;;;;;;;;5003230;28;20053;-62
2022/11/07 00:51:23;;;;;;;6.70;2.20;;;;;;;;;;5003282;28;20041;-66
2022/11/07 00:53:50;;;;;;;6.03;2.03;;;;;;;;;;5006278;28;20042;-67
2022/11/07 00:56:18;;;;;;;6.05;2.30;;;;;;;;;;5007483;28;20167;-64
2022/11/07 00:58:44;;;;;;;5.18;2.40;;;;;;;;;;5006464;28;20050;-63
2022/11/07 01:01:16;;;;;;;4.70;2.08;;;;;;;;;;5001077;28;20065;-63
2022/11/07 01:06:29;;;;;;;6.63;2.30;;;;;;;;;;5002522;28;20041;-61
2022/11/07 01:08:56;;;;;;;4.35;2.33;;;;;;;;;;5010936;28;20522;-62
2022/11/07 01:11:23;;;;;;;6.07;2.10;;;;;;;;;;5011192;28;20041;-63
2022/11/07 01:13:59;;;;;;;5.38;2.00;;;;;;;;;;5012614;28;20471;-62
2022/11/07 01:16:28;;;;;;;5.32;1.95;;;;;;;;;;5002496;28;20057;-63
2022/11/07 01:18:54;;;;;;;6.63;2.20;;;;;;;;;;5006821;28;20470;-61
2022/11/07 01:21:20;;;;;;;6.63;1.80;;;;;;;;;;5004993;28;20126;-61
2022/11/07 01:23:46;;;;;;;21.92;2.53;;;;;;;;;;5008300;28;20045;-61
2022/11/07 01:26:13;;;;;;;6.93;2.20;;;;;;;;;;5007008;28;20423;-61
2022/11/07 01:28:40;;;;;;;5.30;2.28;;;;;;;;;;5005325;28;20050;-62
2022/11/07 01:31:07;;;;;;;5.40;2.20;;;;;;;;;;5014214;28;20161;-63
2022/11/07 01:33:34;;;;;;;6.30;2.10;;;;;;;;;;5008953;28;20116;-61
2022/11/07 01:36:01;;;;;;;5.75;2.40;;;;;;;;;;5007931;28;20396;-66
2022/11/07 01:38:27;;;;;;;6.55;2.10;;;;;;;;;;5009842;28;20450;-63
2022/11/07 01:43:40;;;;;;;;;;;;;;;;;;5007578;28;20057;-63
2022/11/07 01:46:06;;;;;;;9.50;2.00;;;;;;;;;;5005822;28;19921;-64
2022/11/07 01:48:32;;;;;;;6.28;1.77;;;;;;;;;;5006906;28;20053;-67
2022/11/07 01:50:58;;;;;;;5.07;1.70;;;;;;;;;;5006209;28;20049;-67
2022/11/07 01:53:24;;;;;;;6.50;2.15;;;;;;;;;;5006803;28;20049;-62
2022/11/07 01:55:50;;;;;;;6.65;2.05;;;;;;;;;;5009612;28;20046;-61
2022/11/07 01:58:16;;;;;;;3.63;1.88;;;;;;;;;;5005918;28;20084;-62
2022/11/07 02:00:42;;;;;;;4.80;2.00;;;;;;;;;;5008126;28;20302;-69
2022/11/07 02:03:11;;;;;;;5.18;1.83;;;;;;;;;;5007556;28;20046;-63
2022/11/07 02:05:47;;;;;;;4.18;1.95;;;;;;;;;;5005217;28;20050;-63
2022/11/07 02:08:14;;;;;;;2.95;1.80;;;;;;;;;;5005360;28;20049;-62
2022/11/07 02:10:42;;;;;;;3.45;1.60;;;;;;;;;;5007709;28;20115;-62
2022/11/07 02:13:08;;;;;;;5.47;1.90;;;;;;;;;;5011094;28;20049;-66
2022/11/07 02:15:35;;;;;;;3.28;1.70;;;;;;;;;;5008560;28;20053;-68
2022/11/07 02:18:01;;;;;;;4.45;2.00;;;;;;;;;;5002294;28;20080;-63
2022/11/07 02:20:27;;;;;;;8.70;2.30;;;;;;;;;;5007038;28;20041;-61
2022/11/07 02:22:58;;;;;;;4.32;2.08;;;;;;;;;;5008227;28;20065;-62
2022/11/07 02:25:24;;;;;;;3.75;1.77;;;;;;;;;;5007629;28;20060;-62
2022/11/07 02:27:55;;;;;;;4.18;1.80;;;;;;;;;;5006363;28;20049;-63
2022/11/07 02:30:24;;;;;;;4.18;1.88;;;;;;;;;;5006139;28;20096;-62
2022/11/07 02:32:50;;;;;;;4.85;2.03;;;;;;;;;;5003721;28;20096;-64
2022/11/07 02:35:39;;;;;;;4.20;1.70;;;;;;;;;;5007331;28;20049;-66
2022/11/07 02:38:18;;;;;;;4.38;1.70;;;;;;;;;;5001086;28;20081;-64
2022/11/07 02:40:49;;;;;;;5.15;1.95;;;;;;;;;;5001940;28;20077;-64
2022/11/07 02:43:19;;;;;;;4.25;1.90;;;;;;;;;;5005435;28;20117;-63
2022/11/07 02:45:47;;;;;;;4.70;1.80;;;;;;;;;;5006086;28;20387;-62
2022/11/07 02:48:13;;;;;;;4.05;1.83;;;;;;;;;;4995904;28;20111;-66
2022/11/07 02:50:41;;;;;;;3.00;1.88;;;;;;;;;;5005779;28;20045;-67
2022/11/07 02:53:07;;;;;;;3.35;1.92;;;;;;;;;;5008261;28;20431;-63
2022/11/07 02:55:33;;;;;;;4.07;1.73;;;;;;;;;;5012790;28;20123;-62
2022/11/07 02:57:59;;;;;;;3.10;1.67;;;;;;;;;;5008960;28;20479;-61
2022/11/07 03:00:25;;;;;;;4.97;1.75;;;;;;;;;;5005948;28;20056;-61
2022/11/07 03:02:51;;;;;;;4.43;1.85;;;;;;;;;;5002333;28;20411;-65
2022/11/07 03:05:19;;;;;;;2.72;1.63;;;;;;;;;;5004061;28;20052;-62
2022/11/07 03:07:46;;;;;;;3.30;1.52;;;;;;;;;;5003953;28;20045;-62
2022/11/07 03:10:14;;;;;;;4.63;1.48;;;;;;;;;;5007668;28;20050;-64
2022/11/07 03:12:40;;;;;;;4.28;1.70;;;;;;;;;;5009751;28;20518;-70
2022/11/07 03:15:08;;;;;;;4.18;1.77;;;;;;;;;;4997413;28;20054;-61
2022/11/07 03:17:33;;;;;;;5.80;2.05;;;;;;;;;;5018785;28;20046;-64
2022/11/07 03:20:00;;;;;;;3.65;1.30;;;;;;;;;;5007302;28;20034;-60
2022/11/07 03:22:26;;;;;;;5.00;1.70;;;;;;;;;;5004644;28;20503;-69
2022/11/07 03:24:52;;;;;;;2.70;1.45;;;;;;;;;;5004634;28;20050;-68
2022/11/07 03:27:18;;;;;;;4.22;1.45;;;;;;;;;;5005489;28;20522;-63
2022/11/07 03:29:44;;;;;;;3.65;1.70;;;;;;;;;;5016033;28;20050;-63
2022/11/07 03:32:10;;;;;;;3.15;1.50;;;;;;;;;;5014168;28;20092;-66
2022/11/07 03:34:36;;;;;;;4.63;2.05;;;;;;;;;;5009473;28;20057;-61
2022/11/07 03:37:02;;;;;;;3.10;1.60;;;;;;;;;;5006519;28;20045;-65
2022/11/07 03:39:29;;;;;;;7.07;1.67;;;;;;;;;;5006716;28;20502;-65
2022/11/07 03:41:54;;;;;;;2.47;1.42;;;;;;;;;;5001527;28;20045;-61
2022/11/07 03:44:20;;;;;;;3.97;1.60;;;;;;;;;;5005618;28;20057;-63
2022/11/07 03:46:46;;;;;;;4.38;1.58;;;;;;;;;;5001085;28;20044;-66
2022/11/07 03:49:12;;;;;;;2.97;1.65;;;;;;;;;;5006698;28;20045;-62
2022/11/07 03:51:38;;;;;;;11.95;1.75;;;;;;;;;;5002619;28;20389;-63
2022/11/07 03:54:04;;;;;;;2.65;1.45;;;;;;;;;;5012109;28;20049;-63
2022/11/07 03:56:30;;;;;;;3.95;1.75;;;;;;;;;;5004531;28;21853;-68
2022/11/07 03:58:56;;;;;;;5.30;1.70;;;;;;;;;;5002436;28;20065;-62
2022/11/07 04:01:22;;;;;;;4.70;1.50;;;;;;;;;;5003920;28;20046;-64
2022/11/07 04:03:48;;;;;;;5.60;1.65;;;;;;;;;;5003867;28;20109;-62
2022/11/07 04:06:14;;;;;;;5.30;1.90;;;;;;;;;;5004608;28;20045;-68
2022/11/07 04:08:40;;;;;;;3.80;1.50;;;;;;;;;;5008730;28;20320;-72
2022/11/07 04:11:05;;;;;;;3.35;1.63;;;;;;;;;;5003360;28;20045;-65
2022/11/07 04:19:03;;;;;;;3.67;1.38;;;;;;;;;;5005666;28;20061;-61
2022/11/07 04:21:29;;;;;;;2.63;1.92;;;;;;;;;;5007959;28;20042;-67
2022/11/07 04:23:55;;;;;;;4.75;1.90;;;;;;;;;;5004810;28;20273;-65
2022/11/07 04:29:05;;;;;;;;;;;;;;;;;;5010584;28;20057;-63
2022/11/07 04:31:31;;;;;;;3.13;1.70;;;;;;;;;;5012575;28;19928;-64
2022/11/07 04:33:57;;;;;;;3.90;1.75;;;;;;;;;;5004576;28;20050;-63
2022/11/07 04:36:22;;;;;;;3.60;1.50;;;;;;;;;;5003482;28;20495;-67
2022/11/07 04:38:49;;;;;;;8.65;1.48;;;;;;;;;;5004480;28;20061;-65
2022/11/07 04:41:21;;;;;;;3.78;1.40;;;;;;;;;;5011045;28;20165;-64
2022/11/07 04:43:47;;;;;;;5.30;1.50;;;;;;;;;;5003309;28;20050;-64
2022/11/07 04:46:13;;;;;;;3.58;1.30;;;;;;;;;;5008551;28;20046;-64
2022/11/07 04:48:39;;;;;;;4.45;1.35;;;;;;;;;;5014198;28;20069;-66
2022/11/07 04:51:05;;;;;;;3.33;1.70;;;;;;;;;;5006847;28;20042;-67
2022/11/07 04:53:31;;;;;;;4.80;1.60;;;;;;;;;;5010674;28;20399;-61
2022/11/07 04:55:57;;;;;;;3.60;1.50;;;;;;;;;;5008507;28;20058;-62
2022/11/07 04:58:23;;;;;;;2.50;1.40;;;;;;;;;;5010964;28;20372;-62
2022/11/07 05:00:49;;;;;;;3.30;1.27;;;;;;;;;;5006747;28;20046;-65
2022/11/07 05:03:15;;;;;;;2.72;1.30;;;;;;;;;;5006690;28;20046;-62
2022/11/07 05:05:40;;;;;;;4.13;1.45;;;;;;;;;;5002094;28;20049;-67
2022/11/07 05:08:07;;;;;;;2.72;1.38;;;;;;;;;;5007233;28;20061;-65
2022/11/07 05:10:33;;;;;;;2.53;1.20;;;;;;;;;;5006849;28;20064;-63
2022/11/07 05:12:59;;;;;;;3.53;1.48;;;;;;;;;;5008079;28;20049;-64
2022/11/07 05:15:25;;;;;;;8.48;1.60;;;;;;;;;;5013279;28;20085;-67
2022/11/07 05:17:51;;;;;;;4.35;1.25;;;;;;;;;;5015508;28;20042;-63
2022/11/07 05:20:35;;;;;;;2.60;1.40;;;;;;;;;;5009921;28;20057;-64
2022/11/07 05:23:14;;;;;;;2.45;1.40;;;;;;;;;;5009652;28;20510;-70
2022/11/07 05:25:42;;;;;;;4.00;1.30;;;;;;;;;;5003258;28;20807;-69
2022/11/07 05:28:09;;;;;;;4.60;1.35;;;;;;;;;;5008394;28;20049;-62
2022/11/07 05:30:40;;;;;;;6.97;1.63;;;;;;;;;;5008002;28;20052;-63
2022/11/07 05:33:07;;;;;;;2.78;1.42;;;;;;;;;;5012696;28;20046;-60
2022/11/07 05:35:33;;;;;;;5.85;1.58;;;;;;;;;;5007775;28;20046;-66
2022/11/07 05:37:59;;;;;;;4.78;1.80;;;;;;;;;;5009020;28;20522;-64
2022/11/07 05:40:25;;;;;;;2.45;1.40;;;;;;;;;;5008768;28;20053;-67
2022/11/07 05:42:51;;;;;;;4.03;1.40;;;;;;;;;;5017533;28;20448;-62
2022/11/07 05:45:17;;;;;;;6.10;1.55;;;;;;;;;;5015198;28;20117;-61
2022/11/07 05:47:43;;;;;;;7.45;1.50;;;;;;;;;;5007865;28;20432;-62
2022/11/07 05:50:09;;;;;;;2.92;1.30;;;;;;;;;;5012612;28;20046;-62
2022/11/07 05:52:35;;;;;;;3.83;1.35;;;;;;;;;;5000599;28;20045;-61
2022/11/07 05:55:01;;;;;;;2.58;1.50;;;;;;;;;;5006405;28;20046;-61
2022/11/07 05:57:29;;;;;;;4.07;1.30;;;;;;;;;;5003076;28;20050;-62
2022/11/07 05:59:55;;;;;;;4.13;1.42;;;;;;;;;;5000838;28;20140;-63
2022/11/07 06:02:21;;;;;;;3.28;1.50;;;;;;;;;;5010386;28;20056;-62
2022/11/07 06:04:46;;;;;;;6.72;1.70;;;;;;;;;;5004347;28;20046;-62
2022/11/07 06:07:12;;;;;;;3.60;1.40;;;;;;;;;;5008028;28;20049;-62
2022/11/07 06:09:38;;;;;;;4.22;2.28;;;;;;;;;;5004201;28;20404;-62
2022/11/07 06:12:04;;;;;;;7.03;1.55;;;;;;;;;;5005255;28;20046;-61
2022/11/07 06:14:30;;;;;;;7.10;1.48;;;;;;;;;;4999945;28;20573;-63
2022/11/07 06:16:56;;;;;;;5.13;1.50;;;;;;;;;;5009798;28;20056;-62
2022/11/07 06:19:22;;;;;;;5.55;1.63;;;;;;;;;;5008279;28;20041;-62
2022/11/07 06:21:48;;;;;;;5.68;1.70;;;;;;;;;;5000276;28;20060;-62
2022/11/07 06:24:14;;;;;;;6.90;1.65;;;;;;;;;;5006482;28;20058;-62
2022/11/07 06:26:40;;;;;;;8.90;1.67;;;;;;;;;;5008543;28;20050;-64
2022/11/07 06:29:06;;;;;;;8.13;2.13;;;;;;;;;;5011651;28;20418;-63
2022/11/07 06:31:32;;;;;;;5.00;1.80;;;;;;;;;;5006919;28;20042;-62
2022/11/07 06:33:58;;;;;;;10.45;1.63;;;;;;;;;;5008918;28;20061;-64
2022/11/07 06:36:24;;;;;;;6.97;1.95;;;;;;;;;;5007053;28;20050;-64
2022/11/07 06:38:51;;;;;;;5.07;1.63;;;;;;;;;;5002569;28;20052;-64
2022/11/07 06:41:17;;;;;;;5.75;2.15;;;;;;;;;;4996698;28;20042;-65
2022/11/07 06:43:43;;;;;;;9.32;2.70;;;;;;;;;;4997388;28;20042;-64
2022/11/07 06:46:12;;;;;;;3.20;1.70;;;;;;;;;;5000937;28;20056;-65
2022/11/07 06:48:38;;;;;;;10.90;2.10;;;;;;;;;;5002612;28;20128;-63
2022/11/07 06:51:06;;;;;;;12.15;2.13;;;;;;;;;;4995272;28;20459;-62
2022/11/07 06:53:31;;;;;;;16.00;2.03;;;;;;;;;;4991901;28;20100;-76
2022/11/07 06:56:02;;;;;;;4.28;1.75;;;;;;;;;;5006072;28;20385;-78
2022/11/07 06:58:28;;;;;;;4.82;1.98;;;;;;;;;;5005494;28;20085;-74
2022/11/07 07:01:07;;;;;;;10.55;1.75;;;;;;;;;;5015607;28;20042;-80
2022/11/07 07:03:35;;;;;;;4.75;1.95;;;;;;;;;;5027681;28;20109;-81
2022/11/07 07:06:03;;;;;;;6.82;2.20;;;;;;;;;;5005563;28;20073;-68
2022/11/07 07:08:29;;;;;;;11.98;2.15;;;;;;;;;;5006571;28;20049;-68
2022/11/07 07:10:56;;;;;;;15.23;2.25;;;;;;;;;;5002938;28;20503;-68
2022/11/07 07:13:21;;;;;;;9.25;2.15;;;;;;;;;;5003528;28;20050;-66
2022/11/07 07:15:55;;;;;;;7.60;2.10;;;;;;;;;;5005547;28;20342;-70
2022/11/07 07:18:21;;;;;;;7.03;2.15;;;;;;;;;;5003006;28;20277;-68
2022/11/07 07:20:48;;;;;;;7.70;1.80;;;;;;;;;;5004343;28;20108;-69
2022/11/07 07:23:18;;;;;;;8.90;2.15;;;;;;;;;;5006562;28;21551;-65
2022/11/07 07:25:46;;;;;;;8.10;1.65;;;;;;;;;;5005609;28;20042;-66
2022/11/07 07:28:12;;;;;;;7.45;2.45;;;;;;;;;;5007193;28;20157;-68
2022/11/07 07:30:40;;;;;;;4.47;1.98;;;;;;;;;;5002128;28;20237;-66
2022/11/07 07:33:06;;;;;;;9.05;2.50;;;;;;;;;;5007966;28;20057;-65
2022/11/07 07:35:32;;;;;;;6.57;2.08;;;;;;;;;;5001441;28;20054;-67
2022/11/07 07:37:57;;;;;;;11.88;2.60;;;;;;;;;;4995773;28;20053;-68
2022/11/07 07:40:23;;;;;;;10.15;2.30;;;;;;;;;;4999892;28;20080;-66
2022/11/07 07:42:49;;;;;;;9.05;3.10;;;;;;;;;;5002055;28;20496;-68
2022/11/07 07:45:16;;;;;;;9.85;2.95;;;;;;;;;;4999684;28;20050;-65
2022/11/07 07:47:41;;;;;;;7.60;3.20;;;;;;;;;;5004486;28;20049;-67
2022/11/07 07:50:10;;;;;;;7.07;3.17;;;;;;;;;;5019634;28;20049;-66
2022/11/07 07:52:36;;;;;;;23.17;3.85;;;;;;;;;;5003937;28;20042;-66
2022/11/07 07:55:03;;;;;;;24.83;3.72;;;;;;;;;;5004757;28;20057;-66
2022/11/07 07:57:29;;;;;;;17.95;3.65;;;;;;;;;;5003309;28;20172;-70
2022/11/07 07:59:54;;;;;;;18.05;4.25;;;;;;;;;;5005906;28;20611;-68
2022/11/07 08:02:20;;;;;;;16.27;3.80;;;;;;;;;;4999343;28;20049;-67
2022/11/07 08:04:46;;;;;;;16.67;3.80;;;;;;;;;;5005862;28;20058;-69
2022/11/07 08:07:12;;;;;;;13.50;3.70;;;;;;;;;;4997251;28;20045;-68
2022/11/07 08:09:38;;;;;;;9.27;3.63;;;;;;;;;;5002780;28;20096;-66
2022/11/07 08:12:07;;;;;;;18.88;3.90;;;;;;;;;;5008249;28;20049;-67
2022/11/07 08:14:33;;;;;;;15.32;3.20;;;;;;;;;;5006396;28;20531;-69
2022/11/07 08:17:00;;;;;;;15.85;3.47;;;;;;;;;;5005626;28;20057;-68
2022/11/07 08:19:26;;;;;;;9.95;3.25;;;;;;;;;;5007183;28;20050;-68
2022/11/07 08:21:51;;;;;;;9.68;3.05;;;;;;;;;;5013116;28;20045;-70
2022/11/07 08:24:18;;;;;;;15.27;2.80;;;;;;;;;;5001848;28;20061;-69
2022/11/07 08:26:44;;;;;;;11.45;2.97;;;;;;;;;;5000606;28;20050;-69
2022/11/07 08:29:10;;;;;;;16.73;3.05;;;;;;;;;;5009368;28;20054;-71
2022/11/07 08:31:37;;;;;;;12.40;2.92;;;;;;;;;;5020295;28;20116;-70
2022/11/07 08:34:03;;;;;;;17.63;2.78;;;;;;;;;;5003888;28;20087;-69
2022/11/07 08:36:29;;;;;;;9.63;2.55;;;;;;;;;;5003854;28;20060;-72
2022/11/07 08:38:55;;;;;;;12.48;2.65;;;;;;;;;;5009939;28;20076;-70
2022/11/07 08:41:21;;;;;;;9.60;2.75;;;;;;;;;;5009694;28;20337;-69
2022/11/07 08:43:48;;;;;;;11.60;2.55;;;;;;;;;;5008254;28;20040;-71
2022/11/07 08:46:14;;;;;;;10.52;2.80;;;;;;;;;;5008416;28;20061;-70
2022/11/07 08:48:40;;;;;;;15.25;3.10;;;;;;;;;;5005940;28;20125;-69
2022/11/07 08:51:06;;;;;;;10.85;2.80;;;;;;;;;;5012809;28;20068;-72
2022/11/07 08:53:32;;;;;;;10.38;2.78;;;;;;;;;;5001584;28;20053;-68
2022/11/07 08:56:07;;;;;;;12.60;2.95;;;;;;;;;;5010247;28;20052;-69
2022/11/07 08:58:34;;;;;;;10.52;2.85;;;;;;;;;;5005763;28;20543;-70
2022/11/07 09:01:03;;;;;;;18.08;3.00;;;;;;;;;;5014320;28;20597;-71
2022/11/07 09:03:29;;;;;;;10.35;2.88;;;;;;;;;;5005882;28;20503;-69
2022/11/07 09:05:56;;;;;;;14.40;3.15;;;;;;;;;;5005254;28;20041;-70
2022/11/07 09:08:21;;;;;;;9.93;2.65;;;;;;;;;;5001488;28;20145;-62
2022/11/07 09:10:47;;;;;;;9.77;2.45;;;;;;;;;;5003398;28;20041;-63
2022/11/07 09:13:13;;;;;;;16.58;3.58;;;;;;;;;;5005279;28;20044;-64
2022/11/07 09:15:39;;;;;;;13.82;2.53;;;;;;;;;;5008462;28;20054;-65
2022/11/07 09:18:06;;;;;;;12.05;2.60;;;;;;;;;;5009552;28;20041;-65
2022/11/07 09:20:33;;;;;;;11.68;2.90;;;;;;;;;;5009337;28;20101;-63
2022/11/07 09:22:59;;;;;;;10.55;2.75;;;;;;;;;;5006049;28;20570;-63
2022/11/07 09:25:25;;;;;;;9.63;2.10;;;;;;;;;;5005548;28;20045;-64
2022/11/07 09:27:51;;;;;;;11.02;3.47;;;;;;;;;;5007120;28;20404;-66
2022/11/07 09:30:18;;;;;;;12.77;2.72;;;;;;;;;;5007715;28;20057;-65
2022/11/07 09:32:44;;;;;;;5.15;1.75;;;;;;;;;;5008206;28;20129;-65
2022/11/07 09:35:10;;;;;;;10.40;2.20;;;;;;;;;;5011982;28;20056;-65
2022/11/07 09:37:38;;;;;;;7.15;2.08;;;;;;;;;;5003051;28;20045;-66
2022/11/07 09:40:05;;;;;;;9.50;2.50;;;;;;;;;;5008587;28;20996;-64
2022/11/07 09:42:44;;;;;;;4.60;1.98;;;;;;;;;;5007113;28;20038;-66
2022/11/07 09:45:12;;;;;;;6.28;2.25;;;;;;;;;;5007645;28;20054;-65
2022/11/07 09:47:42;;;;;;;7.47;2.60;;;;;;;;;;5007683;28;20045;-63
2022/11/07 09:50:22;;;;;;;4.15;2.28;;;;;;;;;;5012450;28;20077;-64
2022/11/07 09:53:06;;;;;;;11.75;2.30;;;;;;;;;;5006300;28;20478;-64
2022/11/07 09:55:54;;;;;;;11.13;2.30;;;;;;;;;;5005042;28;20396;-66
2022/11/07 09:58:36;;;;;;;8.63;2.58;;;;;;;;;;4999674;28;20054;-65
2022/11/07 10:01:05;;;;;;;5.95;2.30;;;;;;;;;;5000827;28;20069;-64
2022/11/07 10:03:35;;;;;;;8.05;2.25;;;;;;;;;;5036420;28;20061;-66
2022/11/07 10:06:07;;;;;;;7.38;2.40;;;;;;;;;;4994408;28;20054;-64
2022/11/07 10:08:53;;;;;;;9.38;2.15;;;;;;;;;;5005425;28;20046;-63
2022/11/07 10:11:39;;;;;;;6.05;1.77;;;;;;;;;;4998467;28;20034;-69
2022/11/07 10:14:14;;;;;;;8.43;1.83;;;;;;;;;;5004264;28;20054;-71
2022/11/07 10:17:24;;;;;;;8.15;2.00;;;;;;;;;;4997525;28;20061;-67
2022/11/07 10:20:01;;;;;;;7.57;1.83;;;;;;;;;;5038710;28;20080;-69
2022/11/07 10:22:39;;;;;;;5.10;1.67;;;;;;;;;;5027044;28;20072;-69
2022/11/07 10:25:46;;;;;;;4.72;1.73;;;;;;;;;;5042028;28;20049;-68
2022/11/07 10:28:13;;;;;;;12.32;2.03;;;;;;;;;;5045129;28;20422;-67
2022/11/07 10:30:43;;;;;;;7.97;1.90;;;;;;;;;;5043463;28;20120;-67
2022/11/07 10:33:33;;;;;;;10.50;2.30;;;;;;;;;;5038278;28;20501;-67
2022/11/07 10:36:12;;;;;;;12.07;1.90;;;;;;;;;;5037845;28;20037;-66
2022/11/07 10:38:41;;;;;;;4.55;1.40;;;;;;;;;;5043500;28;20044;-67
2022/11/07 10:41:20;;;;;;;10.13;1.42;;;;;;;;;;5043275;28;20052;-67
2022/11/07 10:43:51;;;;;;;6.78;2.08;;;;;;;;;;5042682;28;20051;-68
2022/11/07 10:46:45;;;;;;;5.50;1.55;;;;;;;;;;5038337;28;20045;-67
2022/11/07 10:49:22;;;;;;;7.50;1.77;;;;;;;;;;5043549;28;20061;-69
2022/11/07 10:51:49;;;;;;;7.40;1.90;;;;;;;;;;5043788;28;20297;-67
2022/11/07 10:54:18;;;;;;;6.00;1.75;;;;;;;;;;5016576;28;20049;-69
2022/11/07 10:56:47;;;;;;;11.10;1.73;;;;;;;;;;4995335;28;20522;-67
2022/11/07 10:59:23;;;;;;;6.55;2.00;;;;;;;;;;5005740;28;20045;-68
2022/11/07 11:01:53;;;;;;;5.40;1.60;;;;;;;;;;5007839;28;20305;-68
2022/11/07 11:04:22;;;;;;;10.38;1.63;;;;;;;;;;5006409;28;20054;-68
2022/11/07 11:06:56;;;;;;;8.27;2.08;;;;;;;;;;5007844;28;20048;-68
2022/11/07 11:09:28;;;;;;;5.00;1.83;;;;;;;;;;5006551;28;20050;-69
2022/11/07 11:11:54;;;;;;;5.97;2.00;;;;;;;;;;5008137;28;20133;-66
2022/11/07 11:14:20;;;;;;;6.88;1.70;;;;;;;;;;5000192;28;20045;-69
2022/11/07 11:16:52;;;;;;;5.35;1.75;;;;;;;;;;5003778;28;20046;-71
2022/11/07 11:19:38;;;;;;;9.50;2.30;;;;;;;;;;5006340;28;20058;-71
2022/11/07 11:22:13;;;;;;;6.82;1.88;;;;;;;;;;4999404;28;20053;-68
2022/11/07 11:24:40;;;;;;;3.22;1.70;;;;;;;;;;4998961;28;20046;-68
2022/11/07 11:27:18;;;;;;;8.70;2.20;;;;;;;;;;5006977;28;20157;-69
2022/11/07 11:29:52;;;;;;;7.82;2.30;;;;;;;;;;5000547;28;20057;-67
2022/11/07 11:32:42;;;;;;;19.27;3.50;;;;;;;;;;5005846;28;20076;-68
2022/11/07 11:35:23;;;;;;;6.50;2.30;;;;;;;;;;5004127;28;20442;-68
2022/11/07 11:38:02;;;;;;;14.23;2.83;;;;;;;;;;5002053;28;20049;-68
2022/11/07 11:40:33;;;;;;;16.58;3.10;;;;;;;;;;5005185;28;20053;-69
2022/11/07 11:43:11;;;;;;;15.73;2.90;;;;;;;;;;5005946;28;20054;-70
2022/11/07 11:45:42;;;;;;;8.98;2.88;;;;;;;;;;5000544;28;20181;-68
2022/11/07 11:48:25;;;;;;;13.23;2.72;;;;;;;;;;5005321;28;20492;-69
2022/11/07 11:51:25;;;;;;;13.68;2.85;;;;;;;;;;5001792;28;20049;-70
2022/11/07 11:53:51;;;;;;;9.52;2.20;;;;;;;;;;5007229;28;20058;-68
2022/11/07 11:56:24;;;;;;;8.93;2.50;;;;;;;;;;5002782;28;20054;-67
2022/11/07 11:58:50;;;;;;;8.27;2.00;;;;;;;;;;5004973;28;20521;-66
2022/11/07 12:01:38;;;;;;;10.80;2.50;;;;;;;;;;5003655;28;20116;-67
2022/11/07 12:04:24;;;;;;;8.57;2.15;;;;;;;;;;4999580;28;20047;-66
2022/11/07 12:07:17;;;;;;;7.93;2.08;;;;;;;;;;5004976;28;20038;-65
2022/11/07 12:09:46;;;;;;;4.57;2.05;;;;;;;;;;4998059;28;20051;-68
2022/11/07 12:12:26;;;;;;;7.28;2.17;;;;;;;;;;5005391;28;20057;-65
2022/11/07 12:15:07;;;;;;;11.30;2.40;;;;;;;;;;5001870;28;20074;-68
2022/11/07 12:17:54;;;;;;;11.00;2.20;;;;;;;;;;5000857;28;20049;-66
2022/11/07 12:20:41;;;;;;;4.68;2.00;;;;;;;;;;5000258;28;20112;-66
2022/11/07 12:23:37;;;;;;;6.57;1.98;;;;;;;;;;5004758;28;20380;-66
2022/11/07 12:26:21;;;;;;;5.72;2.08;;;;;;;;;;5004443;28;20062;-67
2022/11/07 12:29:14;;;;;;;9.30;2.78;;;;;;;;;;5005677;28;20050;-67
2022/11/07 12:32:03;;;;;;;10.27;2.47;;;;;;;;;;5000255;28;20503;-67
2022/11/07 12:34:29;;;;;;;4.95;1.90;;;;;;;;;;4994354;28;20046;-69
2022/11/07 12:37:39;;;;;;;10.60;2.55;;;;;;;;;;4999333;28;20049;-67
2022/11/07 12:40:26;;;;;;;3.83;1.60;;;;;;;;;;4998517;28;20419;-67
2022/11/07 12:42:55;;;;;;;9.73;1.90;;;;;;;;;;5003727;28;20050;-68
2022/11/07 12:45:42;;;;;;;4.82;2.00;;;;;;;;;;5004972;28;20050;-68
2022/11/07 12:48:23;;;;;;;10.40;2.50;;;;;;;;;;5003884;28;20562;-72
2022/11/07 12:51:08;;;;;;;7.32;1.83;;;;;;;;;;4999759;28;20054;-66
2022/11/07 12:53:44;;;;;;;5.25;2.00;;;;;;;;;;5002776;28;20409;-69
2022/11/07 12:56:20;;;;;;;6.03;1.92;;;;;;;;;;5003175;28;20054;-65
2022/11/07 12:58:47;;;;;;;7.28;2.25;;;;;;;;;;5009004;28;20034;-69
2022/11/07 13:01:16;;;;;;;7.55;2.10;;;;;;;;;;5008064;28;20046;-68
2022/11/07 13:04:03;;;;;;;9.32;2.88;;;;;;;;;;5006432;28;20038;-68
2022/11/07 13:06:41;;;;;;;8.20;2.40;;;;;;;;;;5008075;28;20169;-66
2022/11/07 13:09:12;;;;;;;8.77;2.60;;;;;;;;;;5011235;28;20061;-66
2022/11/07 13:12:07;;;;;;;6.72;2.22;;;;;;;;;;5009995;28;20038;-68
2022/11/07 13:14:38;;;;;;;9.27;2.03;;;;;;;;;;5006980;28;20096;-68
2022/11/07 13:17:07;;;;;;;6.07;2.20;;;;;;;;;;5004547;28;20149;-69
2022/11/07 13:19:35;;;;;;;6.63;2.17;;;;;;;;;;4998504;28;20129;-65
2022/11/07 13:22:04;;;;;;;7.32;2.22;;;;;;;;;;5000725;28;20046;-70
2022/11/07 13:24:37;;;;;;;7.70;2.30;;;;;;;;;;5003374;28;20065;-69
2022/11/07 13:27:20;;;;;;;7.47;2.13;;;;;;;;;;4997958;28;20049;-68
2022/11/07 13:29:46;;;;;;;6.65;1.73;;;;;;;;;;4998988;28;20056;-66
2022/11/07 13:32:15;;;;;;;6.07;2.58;;;;;;;;;;4998361;28;20050;-66
2022/11/07 13:34:58;;;;;;;7.80;2.15;;;;;;;;;;5000480;28;20054;-67
2022/11/07 13:37:31;;;;;;;7.88;2.03;;;;;;;;;;5004802;28;20508;-68
2022/11/07 13:40:06;;;;;;;9.63;2.65;;;;;;;;;;5003532;28;20452;-67
2022/11/07 13:42:33;;;;;;;6.90;2.20;;;;;;;;;;5005057;28;20499;-67
2022/11/07 13:45:19;;;;;;;8.93;2.05;;;;;;;;;;5003506;28;20049;-67
2022/11/07 13:47:46;;;;;;;6.03;2.00;;;;;;;;;;5005112;28;20049;-67
2022/11/07 13:50:22;;;;;;;6.28;2.50;;;;;;;;;;4999195;28;20050;-67
2022/11/07 13:52:59;;;;;;;8.48;3.50;;;;;;;;;;5004594;28;20042;-71
2022/11/07 13:55:34;;;;;;;6.78;1.75;;;;;;;;;;5005471;28;20042;-68
2022/11/07 13:58:07;;;;;;;6.30;1.90;;;;;;;;;;5002815;28;20038;-67
2022/11/07 14:00:33;;;;;;;12.77;2.20;;;;;;;;;;5006191;28;20049;-68
2022/11/07 14:02:59;;;;;;;8.20;2.30;;;;;;;;;;5002818;28;20284;-66
2022/11/07 14:05:31;;;;;;;3.35;1.83;;;;;;;;;;5006518;28;20053;-68
2022/11/07 14:08:05;;;;;;;7.28;2.40;;;;;;;;;;5006922;28;20038;-67
2022/11/07 14:10:38;;;;;;;4.25;1.70;;;;;;;;;;5031067;28;20194;-69
2022/11/07 14:13:23;;;;;;;8.52;3.05;;;;;;;;;;5001826;28;20093;-69
2022/11/07 14:15:53;;;;;;;9.13;2.53;;;;;;;;;;5002566;28;20056;-72
2022/11/07 14:18:25;;;;;;;10.57;2.10;;;;;;;;;;5008348;28;20042;-68
2022/11/07 14:20:56;;;;;;;8.70;2.08;;;;;;;;;;5000111;28;20046;-68
2022/11/07 14:23:28;;;;;;;6.50;2.00;;;;;;;;;;5005754;28;21139;-70
2022/11/07 14:26:00;;;;;;;8.57;2.38;;;;;;;;;;5005813;28;20108;-68
2022/11/07 14:28:35;;;;;;;4.72;2.03;;;;;;;;;;5007036;28;20100;-68
2022/11/07 14:31:06;;;;;;;4.43;1.90;;;;;;;;;;5001031;28;20077;-67
2022/11/07 14:33:32;;;;;;;11.90;2.72;;;;;;;;;;5001716;28;20050;-67
2022/11/07 14:36:04;;;;;;;8.63;2.00;;;;;;;;;;5000971;28;20048;-68
2022/11/07 14:38:30;;;;;;;8.60;1.73;;;;;;;;;;5005792;28;20052;-69
2022/11/07 14:40:59;;;;;;;4.78;1.60;;;;;;;;;;5006551;28;20515;-69
2022/11/07 14:43:27;;;;;;;8.07;2.15;;;;;;;;;;5007790;28;20056;-67
2022/11/07 14:46:03;;;;;;;7.72;1.73;;;;;;;;;;5001900;28;20042;-68
2022/11/07 14:48:29;;;;;;;8.75;2.08;;;;;;;;;;5006708;28;20076;-67
2022/11/07 14:50:57;;;;;;;5.05;2.10;;;;;;;;;;4998669;28;20053;-69
2022/11/07 14:53:37;;;;;;;5.20;1.90;;;;;;;;;;4999468;28;20530;-68
2022/11/07 14:56:07;;;;;;;6.72;1.58;;;;;;;;;;5002928;28;20041;-68
2022/11/07 14:58:34;;;;;;;7.18;1.60;;;;;;;;;;5006471;28;20046;-67
2022/11/07 15:01:06;;;;;;;7.50;1.80;;;;;;;;;;5002516;28;20057;-68
2022/11/07 15:03:37;;;;;;;16.42;2.38;;;;;;;;;;4996280;28;20487;-70
2022/11/07 15:06:03;;;;;;;8.15;2.28;;;;;;;;;;4999742;28;20516;-70
2022/11/07 15:08:35;;;;;;;6.57;1.60;;;;;;;;;;5016157;28;20077;-67
2022/11/07 15:11:51;;;;;;;6.03;2.38;;;;;;;;;;4999069;28;20057;-71
2022/11/07 15:14:23;;;;;;;4.90;1.60;;;;;;;;;;4987791;28;20045;-71